createdAt,value
2023-04-28T00:00:47.472Z,7.20
2023-04-28T00:05:49.618Z,7.95
2023-04-28T00:10:51.440Z,7.70
2023-04-28T00:15:53.843Z,9.70
2023-04-28T00:20:58.687Z,8.63
2023-04-28T00:26:00.750Z,8.38
2023-04-28T00:31:02.892Z,10.05
2023-04-28T00:36:05.061Z,9.43
2023-04-28T00:41:07.251Z,7.72
2023-04-28T00:46:08.996Z,7.05
2023-04-28T00:51:10.904Z,8.52
2023-04-28T00:56:12.869Z,9.05
2023-04-28T01:01:14.640Z,7.80
2023-04-28T01:06:17.363Z,6.72
2023-04-28T01:11:19.229Z,8.30
2023-04-28T01:16:21.090Z,10.07
2023-04-28T01:21:32.917Z,6.93
2023-04-28T01:26:37.102Z,11.95
2023-04-28T01:31:39.071Z,8.00
2023-04-28T01:36:40.930Z,10.32
2023-04-28T01:41:43.235Z,8.65
2023-04-28T01:46:44.966Z,9.70
2023-04-28T01:51:46.715Z,12.82
2023-04-28T01:56:48.391Z,7.82
2023-04-28T02:01:50.132Z,11.18
2023-04-28T02:06:52.142Z,9.70
2023-04-28T02:11:53.809Z,10.43
2023-04-28T02:16:55.662Z,9.73
2023-04-28T02:21:57.334Z,10.80
2023-04-28T02:26:59.065Z,9.63
2023-04-28T02:32:01.576Z,10.15
2023-04-28T02:37:03.333Z,9.70
2023-04-28T02:42:05.349Z,13.00
2023-04-28T02:47:07.159Z,11.68
2023-04-28T02:52:09.075Z,10.38
2023-04-28T02:57:10.788Z,14.82
2023-04-28T03:02:12.805Z,14.32
2023-04-28T03:07:14.795Z,10.15
2023-04-28T03:12:16.541Z,12.43
2023-04-28T03:17:18.343Z,11.65
2023-04-28T03:22:20.046Z,14.10
2023-04-28T03:27:22.134Z,15.98
2023-04-28T03:32:23.803Z,14.77
2023-04-28T03:37:25.742Z,16.65
2023-04-28T03:42:28.821Z,13.88
2023-04-28T03:47:30.583Z,13.07
2023-04-28T03:52:35.162Z,13.57
2023-04-28T03:57:36.886Z,13.73
2023-04-28T04:02:38.839Z,16.88
2023-04-28T04:07:41.102Z,14.07
2023-04-28T04:12:42.862Z,16.02
2023-04-28T04:17:44.711Z,15.52
2023-04-28T04:22:46.493Z,15.00
2023-04-28T04:27:48.819Z,15.45
2023-04-28T04:32:50.664Z,14.25
2023-04-28T04:37:52.441Z,15.57
2023-04-28T04:42:54.151Z,14.15
2023-04-28T04:47:55.908Z,17.38
2023-04-28T04:52:58.252Z,13.70
2023-04-28T04:58:00.025Z,16.20
2023-04-28T05:03:01.979Z,14.20
2023-04-28T05:08:03.945Z,15.90
2023-04-28T05:13:06.055Z,17.02
2023-04-28T05:18:10.982Z,13.00
2023-04-28T05:23:12.998Z,16.15
2023-04-28T05:28:14.778Z,12.63
2023-04-28T05:33:16.498Z,13.57
2023-04-28T05:38:18.226Z,16.65
2023-04-28T05:43:19.949Z,16.02
2023-04-28T05:48:21.718Z,16.63
2023-04-28T05:53:23.426Z,18.23
2023-04-28T05:58:25.280Z,15.25
2023-04-28T06:03:27.183Z,14.55
2023-04-28T06:08:29.031Z,13.40
2023-04-28T06:13:30.985Z,16.08
2023-04-28T06:18:33.062Z,14.65
2023-04-28T06:23:35.648Z,13.45
2023-04-28T06:28:37.355Z,13.57
2023-04-28T06:33:40.659Z,16.58
2023-04-28T06:38:44.866Z,12.63
2023-04-28T06:43:47.559Z,16.35
2023-04-28T06:48:49.231Z,12.50
2023-04-28T06:53:53.141Z,12.38
2023-04-28T06:58:55.600Z,14.77
2023-04-28T07:03:57.520Z,16.10
2023-04-28T07:08:59.616Z,12.55
2023-04-28T07:14:01.290Z,11.52
2023-04-28T07:19:04.474Z,18.30
2023-04-28T07:24:06.516Z,11.52
2023-04-28T07:29:09.048Z,15.02
2023-04-28T07:34:10.893Z,14.10
2023-04-28T07:39:13.048Z,12.52
2023-04-28T07:44:14.991Z,12.90
2023-04-28T07:49:17.178Z,13.25
2023-04-28T07:54:19.154Z,12.25
2023-04-28T07:59:21.170Z,15.65
2023-04-28T08:04:23.307Z,12.48
2023-04-28T08:09:27.970Z,13.45
2023-04-28T08:14:29.731Z,15.88
2023-04-28T08:19:31.771Z,15.00
2023-04-28T08:24:36.813Z,10.48
2023-04-28T08:29:39.224Z,13.65
2023-04-28T08:34:40.942Z,15.48
2023-04-28T08:39:42.822Z,16.80
2023-04-28T08:44:45.281Z,13.25
2023-04-28T08:49:48.519Z,9.60
2023-04-28T08:54:51.261Z,9.10
2023-04-28T08:59:53.884Z,10.82
2023-04-28T09:04:55.830Z,9.60
2023-04-28T09:10:15.946Z,10.00
2023-04-28T09:15:35.263Z,9.48
2023-04-28T09:20:37.321Z,8.50
2023-04-28T09:25:39.452Z,9.82
2023-04-28T09:30:41.298Z,11.02
2023-04-28T09:35:45.311Z,9.32
2023-04-28T09:40:49.725Z,10.38
2023-04-28T09:45:51.936Z,10.35
2023-04-28T09:50:55.525Z,10.00
2023-04-28T09:55:59.569Z,9.10
2023-04-28T10:01:01.687Z,14.70
2023-04-28T10:06:13.688Z,12.57
2023-04-28T10:11:16.294Z,12.32
2023-04-28T10:16:19.452Z,13.40
2023-04-28T10:21:23.538Z,15.05
2023-04-28T10:26:36.595Z,11.82
2023-04-28T10:31:38.584Z,14.20
2023-04-28T10:36:52.688Z,13.30
2023-04-28T10:41:54.720Z,12.65
2023-04-28T10:47:04.627Z,10.32
2023-04-28T10:52:38.787Z,14.73
2023-04-28T10:57:40.521Z,9.70
2023-04-28T11:02:44.718Z,10.70
2023-04-28T11:08:19.012Z,13.57
2023-04-28T11:13:28.539Z,11.80
2023-04-28T11:18:31.700Z,12.27
2023-04-28T11:23:33.566Z,10.43
2023-04-28T11:28:36.689Z,12.40
2023-04-28T11:33:39.621Z,15.45
2023-04-28T11:38:49.045Z,14.63
2023-04-28T11:43:50.987Z,11.55
2023-04-28T11:49:06.041Z,10.95
2023-04-28T11:54:11.184Z,10.07
2023-04-28T11:59:13.877Z,11.77
2023-04-28T12:04:27.888Z,10.70
2023-04-28T12:09:29.905Z,9.20
2023-04-28T12:14:35.449Z,9.93
2023-04-28T12:19:45.121Z,9.20
2023-04-28T12:24:47.002Z,10.13
2023-04-28T12:29:48.994Z,11.23
2023-04-28T12:34:51.335Z,9.70
2023-04-28T12:39:53.033Z,9.73
2023-04-28T12:44:57.301Z,9.85
2023-04-28T12:49:59.198Z,7.78
2023-04-28T12:55:01.020Z,10.90
2023-04-28T13:00:03.165Z,11.88
2023-04-28T13:05:05.440Z,10.88
2023-04-28T13:10:08.331Z,9.55
2023-04-28T13:15:10.896Z,11.02
2023-04-28T13:20:12.723Z,8.43
2023-04-28T13:25:15.201Z,10.65
2023-04-28T13:30:16.994Z,9.52
2023-04-28T13:35:19.244Z,9.38
2023-04-28T13:40:21.191Z,9.40
2023-04-28T13:45:23.024Z,10.25
2023-04-28T13:50:24.816Z,7.30
2023-04-28T13:55:30.566Z,8.13
2023-04-28T14:00:32.752Z,9.38
2023-04-28T14:05:48.319Z,7.47
2023-04-28T14:10:51.740Z,9.15
2023-04-28T14:15:59.465Z,6.55
2023-04-28T14:21:02.352Z,7.25
2023-04-28T14:26:04.223Z,7.53
2023-04-28T14:31:07.427Z,7.72
2023-04-28T14:36:10.281Z,6.20
2023-04-28T14:41:12.068Z,10.00
2023-04-28T14:46:14.041Z,6.43
2023-04-28T14:51:15.823Z,5.25
2023-04-28T14:56:19.790Z,6.88
2023-04-28T15:01:21.721Z,6.75
2023-04-28T15:06:23.478Z,8.75
2023-04-28T15:11:25.769Z,6.43
2023-04-28T15:16:27.540Z,7.10
2023-04-28T15:21:31.051Z,4.82
2023-04-28T15:26:33.048Z,7.13
2023-04-28T15:31:34.963Z,6.32
2023-04-28T15:36:40.353Z,9.85
2023-04-28T15:41:42.506Z,9.82
2023-04-28T15:46:44.964Z,10.85
2023-04-28T15:51:46.825Z,9.93
2023-04-28T15:56:48.635Z,8.65
2023-04-28T16:01:50.332Z,7.55
2023-04-28T16:06:52.905Z,7.93
2023-04-28T16:11:55.336Z,10.63
2023-04-28T16:16:59.664Z,6.93
2023-04-28T16:22:01.570Z,7.75
2023-04-28T16:27:03.599Z,6.80
2023-04-28T16:32:06.300Z,19.30
2023-04-28T16:37:08.271Z,10.52
2023-04-28T16:42:10.299Z,6.75
2023-04-28T16:47:14.360Z,7.85
2023-04-28T16:52:16.652Z,9.43
2023-04-28T16:57:18.378Z,10.55
2023-04-28T17:02:20.248Z,9.20
2023-04-28T17:07:24.175Z,13.02
2023-04-28T17:12:27.353Z,8.38
2023-04-28T17:17:29.172Z,13.93
2023-04-28T17:22:32.057Z,8.15
2023-04-28T17:27:33.755Z,10.48
2023-04-28T17:32:36.600Z,10.88
2023-04-28T17:37:38.486Z,12.65
2023-04-28T17:42:40.255Z,13.65
2023-04-28T17:47:41.991Z,10.45
2023-04-28T17:52:44.263Z,9.90
2023-04-28T17:57:46.210Z,11.93
2023-04-28T18:02:47.900Z,7.60
2023-04-28T18:07:49.954Z,10.45
2023-04-28T18:12:53.010Z,9.45
2023-04-28T18:17:56.983Z,9.73
2023-04-28T18:23:01.240Z,9.68
2023-04-28T18:28:03.692Z,8.95
2023-04-28T18:33:08.001Z,10.52
2023-04-28T18:38:09.801Z,10.25
2023-04-28T18:43:11.744Z,9.95
2023-04-28T18:48:13.628Z,11.65
2023-04-28T18:53:15.671Z,11.60
2023-04-28T18:58:18.377Z,12.77
2023-04-28T19:03:23.852Z,11.43
2023-04-28T19:08:25.616Z,10.65
2023-04-28T19:13:27.346Z,12.70
2023-04-28T19:18:31.469Z,12.70
2023-04-28T19:23:33.699Z,13.05
2023-04-28T19:28:35.926Z,15.88
2023-04-28T19:33:37.857Z,12.82
2023-04-28T19:38:40.233Z,19.42
2023-04-28T19:43:43.436Z,12.32
2023-04-28T19:48:46.526Z,15.55
2023-04-28T19:53:49.370Z,12.25
2023-04-28T19:58:51.133Z,13.65
2023-04-28T20:03:54.147Z,13.85
2023-04-28T20:08:55.938Z,15.40
2023-04-28T20:13:57.854Z,11.52
2023-04-28T20:18:59.562Z,16.35
2023-04-28T20:24:01.261Z,13.38
2023-04-28T20:29:03.291Z,14.88
2023-04-28T20:34:04.993Z,15.55
2023-04-28T20:39:10.895Z,13.85
2023-04-28T20:44:12.711Z,13.68
2023-04-28T20:49:15.146Z,16.55
2023-04-28T20:54:16.859Z,15.45
2023-04-28T20:59:18.542Z,16.15
2023-04-28T21:04:20.349Z,13.95
2023-04-28T21:09:25.884Z,16.98
2023-04-28T21:14:27.720Z,15.23
2023-04-28T21:19:32.542Z,16.92
2023-04-28T21:24:34.244Z,19.00
2023-04-28T21:29:35.918Z,20.05
2023-04-28T21:34:37.656Z,21.95
2023-04-28T21:39:39.452Z,18.65
2023-04-28T21:44:41.624Z,18.50
2023-04-28T21:49:43.957Z,17.70
2023-04-28T21:54:47.675Z,18.88
2023-04-28T21:59:50.077Z,18.23
2023-04-28T22:04:52.074Z,15.95
2023-04-28T22:09:54.326Z,17.63
2023-04-28T22:14:56.173Z,18.58
2023-04-28T22:19:58.849Z,17.67
2023-04-28T22:25:00.680Z,15.73
2023-04-28T22:30:02.417Z,19.05
2023-04-28T22:35:04.659Z,21.05
2023-04-28T22:40:08.447Z,19.60
2023-04-28T22:45:10.961Z,18.05
2023-04-28T22:50:12.858Z,16.40
2023-04-28T22:55:14.706Z,17.45
2023-04-28T23:00:16.612Z,17.38
2023-04-28T23:05:18.401Z,18.30
2023-04-28T23:10:20.074Z,17.80
2023-04-28T23:15:21.769Z,18.08
2023-04-28T23:20:23.434Z,16.63
2023-04-28T23:25:25.929Z,17.45
2023-04-28T23:30:27.591Z,14.95
2023-04-28T23:35:29.587Z,16.80
2023-04-28T23:40:31.445Z,16.50
2023-04-28T23:45:33.195Z,18.20
2023-04-28T23:50:34.959Z,17.88
2023-04-28T23:55:36.859Z,17.15
